sensor_id;sensor_type;location;lat;lon;timestamp;P1;durP1;ratioP1;P2;durP2;ratioP2
66669;SDS011;53568;52.164;4.472;2022-07-22T00:00:51;2.63;;;2.39;;
66669;SDS011;53568;52.164;4.472;2022-07-22T00:03:16;2.70;;;2.49;;
66669;SDS011;53568;52.164;4.472;2022-07-22T00:05:42;2.53;;;2.32;;
66669;SDS011;53568;52.164;4.472;2022-07-22T00:08:07;2.22;;;2.02;;
66669;SDS011;53568;52.164;4.472;2022-07-22T00:10:33;2.88;;;2.58;;
66669;SDS011;53568;52.164;4.472;2022-07-22T00:12:59;2.85;;;2.50;;
66669;SDS011;53568;52.164;4.472;2022-07-22T00:15:24;2.93;;;2.59;;
66669;SDS011;53568;52.164;4.472;2022-07-22T00:17:50;2.55;;;2.33;;
66669;SDS011;53568;52.164;4.472;2022-07-22T00:20:16;2.50;;;2.28;;
66669;SDS011;53568;52.164;4.472;2022-07-22T00:22:41;2.84;;;2.53;;
66669;SDS011;53568;52.164;4.472;2022-07-22T00:25:07;2.70;;;2.38;;
66669;SDS011;53568;52.164;4.472;2022-07-22T00:27:33;2.85;;;2.53;;
66669;SDS011;53568;52.164;4.472;2022-07-22T00:29:58;2.52;;;2.30;;
66669;SDS011;53568;52.164;4.472;2022-07-22T00:32:24;2.25;;;2.05;;
66669;SDS011;53568;52.164;4.472;2022-07-22T00:34:50;2.31;;;2.12;;
66669;SDS011;53568;52.164;4.472;2022-07-22T00:37:15;2.30;;;2.15;;
66669;SDS011;53568;52.164;4.472;2022-07-22T00:39:41;2.20;;;2.09;;
66669;SDS011;53568;52.164;4.472;2022-07-22T00:42:06;2.21;;;2.08;;
66669;SDS011;53568;52.164;4.472;2022-07-22T00:44:32;2.16;;;1.99;;
66669;SDS011;53568;52.164;4.472;2022-07-22T00:46:58;2.21;;;2.08;;
66669;SDS011;53568;52.164;4.472;2022-07-22T00:49:23;2.23;;;2.10;;
66669;SDS011;53568;52.164;4.472;2022-07-22T00:51:49;1.85;;;1.75;;
66669;SDS011;53568;52.164;4.472;2022-07-22T00:54:14;2.06;;;1.92;;
66669;SDS011;53568;52.164;4.472;2022-07-22T00:56:40;2.41;;;2.19;;
66669;SDS011;53568;52.164;4.472;2022-07-22T00:59:07;2.27;;;2.05;;
66669;SDS011;53568;52.164;4.472;2022-07-22T01:01:35;2.11;;;1.92;;
66669;SDS011;53568;52.164;4.472;2022-07-22T01:04:01;2.11;;;1.94;;
66669;SDS011;53568;52.164;4.472;2022-07-22T01:06:27;2.38;;;2.15;;
66669;SDS011;53568;52.164;4.472;2022-07-22T01:08:54;2.39;;;2.11;;
66669;SDS011;53568;52.164;4.472;2022-07-22T01:11:21;2.23;;;1.93;;
66669;SDS011;53568;52.164;4.472;2022-07-22T01:13:47;2.34;;;2.07;;
66669;SDS011;53568;52.164;4.472;2022-07-22T01:16:14;2.30;;;2.04;;
66669;SDS011;53568;52.164;4.472;2022-07-22T01:18:41;2.10;;;1.88;;
66669;SDS011;53568;52.164;4.472;2022-07-22T01:21:08;2.28;;;2.05;;
66669;SDS011;53568;52.164;4.472;2022-07-22T01:23:35;2.18;;;1.98;;
66669;SDS011;53568;52.164;4.472;2022-07-22T01:26:01;2.08;;;1.90;;
66669;SDS011;53568;52.164;4.472;2022-07-22T01:28:27;2.16;;;1.98;;
66669;SDS011;53568;52.164;4.472;2022-07-22T01:30:53;2.30;;;2.07;;
66669;SDS011;53568;52.164;4.472;2022-07-22T01:33:19;2.35;;;2.11;;
66669;SDS011;53568;52.164;4.472;2022-07-22T01:35:46;2.25;;;2.02;;
66669;SDS011;53568;52.164;4.472;2022-07-22T01:38:13;2.24;;;2.03;;
66669;SDS011;53568;52.164;4.472;2022-07-22T01:40:39;2.34;;;2.09;;
66669;SDS011;53568;52.164;4.472;2022-07-22T01:43:06;2.52;;;2.22;;
66669;SDS011;53568;52.164;4.472;2022-07-22T01:45:32;2.39;;;2.08;;
66669;SDS011;53568;52.164;4.472;2022-07-22T01:47:58;2.45;;;2.14;;
66669;SDS011;53568;52.164;4.472;2022-07-22T01:50:24;2.27;;;2.02;;
66669;SDS011;53568;52.164;4.472;2022-07-22T01:52:50;2.33;;;2.06;;
66669;SDS011;53568;52.164;4.472;2022-07-22T01:55:16;2.25;;;1.96;;
66669;SDS011;53568;52.164;4.472;2022-07-22T01:57:41;2.32;;;2.03;;
66669;SDS011;53568;52.164;4.472;2022-07-22T02:00:08;2.34;;;2.08;;
66669;SDS011;53568;52.164;4.472;2022-07-22T02:02:35;2.17;;;1.96;;
66669;SDS011;53568;52.164;4.472;2022-07-22T02:05:01;1.84;;;1.68;;
66669;SDS011;53568;52.164;4.472;2022-07-22T02:07:28;2.08;;;1.91;;
66669;SDS011;53568;52.164;4.472;2022-07-22T02:09:54;1.87;;;1.70;;
66669;SDS011;53568;52.164;4.472;2022-07-22T02:12:19;1.79;;;1.65;;
66669;SDS011;53568;52.164;4.472;2022-07-22T02:14:45;1.95;;;1.82;;
66669;SDS011;53568;52.164;4.472;2022-07-22T02:17:11;1.91;;;1.81;;
66669;SDS011;53568;52.164;4.472;2022-07-22T02:19:37;1.90;;;1.78;;
66669;SDS011;53568;52.164;4.472;2022-07-22T02:22:03;1.85;;;1.68;;
66669;SDS011;53568;52.164;4.472;2022-07-22T02:24:29;1.94;;;1.76;;
66669;SDS011;53568;52.164;4.472;2022-07-22T02:26:54;2.03;;;1.84;;
66669;SDS011;53568;52.164;4.472;2022-07-22T02:29:20;2.10;;;1.93;;
66669;SDS011;53568;52.164;4.472;2022-07-22T02:31:45;1.87;;;1.72;;
66669;SDS011;53568;52.164;4.472;2022-07-22T02:34:11;1.95;;;1.79;;
66669;SDS011;53568;52.164;4.472;2022-07-22T02:36:37;2.25;;;2.02;;
66669;SDS011;53568;52.164;4.472;2022-07-22T02:39:02;2.15;;;1.87;;
66669;SDS011;53568;52.164;4.472;2022-07-22T02:41:29;2.03;;;1.77;;
66669;SDS011;53568;52.164;4.472;2022-07-22T02:43:54;2.15;;;1.91;;
66669;SDS011;53568;52.164;4.472;2022-07-22T02:46:21;1.87;;;1.70;;
66669;SDS011;53568;52.164;4.472;2022-07-22T02:48:47;2.01;;;1.83;;
66669;SDS011;53568;52.164;4.472;2022-07-22T02:51:13;2.21;;;1.96;;
66669;SDS011;53568;52.164;4.472;2022-07-22T02:53:38;2.11;;;1.83;;
66669;SDS011;53568;52.164;4.472;2022-07-22T02:56:04;2.10;;;1.84;;
66669;SDS011;53568;52.164;4.472;2022-07-22T02:58:30;1.94;;;1.74;;
66669;SDS011;53568;52.164;4.472;2022-07-22T03:00:55;2.01;;;1.80;;
66669;SDS011;53568;52.164;4.472;2022-07-22T03:03:21;2.05;;;1.81;;
66669;SDS011;53568;52.164;4.472;2022-07-22T03:05:46;1.93;;;1.75;;
66669;SDS011;53568;52.164;4.472;2022-07-22T03:08:12;1.89;;;1.71;;
66669;SDS011;53568;52.164;4.472;2022-07-22T03:10:37;1.64;;;1.48;;
66669;SDS011;53568;52.164;4.472;2022-07-22T03:13:03;1.67;;;1.51;;
66669;SDS011;53568;52.164;4.472;2022-07-22T03:15:29;1.71;;;1.55;;
66669;SDS011;53568;52.164;4.472;2022-07-22T03:17:54;1.60;;;1.45;;
66669;SDS011;53568;52.164;4.472;2022-07-22T03:20:20;1.65;;;1.49;;
66669;SDS011;53568;52.164;4.472;2022-07-22T03:22:45;1.75;;;1.61;;
66669;SDS011;53568;52.164;4.472;2022-07-22T03:25:11;1.79;;;1.66;;
66669;SDS011;53568;52.164;4.472;2022-07-22T03:27:37;1.87;;;1.70;;
66669;SDS011;53568;52.164;4.472;2022-07-22T03:30:03;1.59;;;1.45;;
66669;SDS011;53568;52.164;4.472;2022-07-22T03:32:30;1.70;;;1.58;;
66669;SDS011;53568;52.164;4.472;2022-07-22T03:34:55;1.72;;;1.60;;
66669;SDS011;53568;52.164;4.472;2022-07-22T03:37:21;1.36;;;1.29;;
66669;SDS011;53568;52.164;4.472;2022-07-22T03:39:46;1.43;;;1.41;;
66669;SDS011;53568;52.164;4.472;2022-07-22T03:42:12;1.47;;;1.37;;
66669;SDS011;53568;52.164;4.472;2022-07-22T03:44:37;1.65;;;1.52;;
66669;SDS011;53568;52.164;4.472;2022-07-22T03:47:03;1.65;;;1.52;;
66669;SDS011;53568;52.164;4.472;2022-07-22T03:49:28;1.76;;;1.59;;
66669;SDS011;53568;52.164;4.472;2022-07-22T03:51:55;1.49;;;1.37;;
66669;SDS011;53568;52.164;4.472;2022-07-22T03:54:21;1.58;;;1.46;;
66669;SDS011;53568;52.164;4.472;2022-07-22T03:56:46;1.63;;;1.52;;
66669;SDS011;53568;52.164;4.472;2022-07-22T03:59:11;1.50;;;1.40;;
66669;SDS011;53568;52.164;4.472;2022-07-22T04:01:37;1.55;;;1.45;;
66669;SDS011;53568;52.164;4.472;2022-07-22T04:04:03;1.65;;;1.53;;
66669;SDS011;53568;52.164;4.472;2022-07-22T04:06:29;1.32;;;1.32;;
66669;SDS011;53568;52.164;4.472;2022-07-22T04:08:55;1.27;;;1.27;;
66669;SDS011;53568;52.164;4.472;2022-07-22T04:11:20;1.34;;;1.32;;
66669;SDS011;53568;52.164;4.472;2022-07-22T04:13:46;1.41;;;1.34;;
66669;SDS011;53568;52.164;4.472;2022-07-22T04:16:11;1.19;;;1.19;;
66669;SDS011;53568;52.164;4.472;2022-07-22T04:18:37;1.37;;;1.27;;
66669;SDS011;53568;52.164;4.472;2022-07-22T04:21:02;1.34;;;1.24;;
66669;SDS011;53568;52.164;4.472;2022-07-22T04:23:28;1.49;;;1.38;;
66669;SDS011;53568;52.164;4.472;2022-07-22T04:25:54;1.49;;;1.37;;
66669;SDS011;53568;52.164;4.472;2022-07-22T04:28:20;1.50;;;1.38;;
66669;SDS011;53568;52.164;4.472;2022-07-22T04:30:46;1.39;;;1.30;;
66669;SDS011;53568;52.164;4.472;2022-07-22T04:33:11;1.38;;;1.30;;
66669;SDS011;53568;52.164;4.472;2022-07-22T04:35:37;1.56;;;1.45;;
66669;SDS011;53568;52.164;4.472;2022-07-22T04:38:03;1.41;;;1.31;;
66669;SDS011;53568;52.164;4.472;2022-07-22T04:40:29;1.37;;;1.28;;
66669;SDS011;53568;52.164;4.472;2022-07-22T04:42:54;1.39;;;1.30;;
66669;SDS011;53568;52.164;4.472;2022-07-22T04:45:20;1.51;;;1.41;;
66669;SDS011;53568;52.164;4.472;2022-07-22T04:47:45;1.60;;;1.49;;
66669;SDS011;53568;52.164;4.472;2022-07-22T04:50:11;1.60;;;1.47;;
66669;SDS011;53568;52.164;4.472;2022-07-22T04:52:36;1.54;;;1.39;;
66669;SDS011;53568;52.164;4.472;2022-07-22T04:55:02;1.60;;;1.46;;
66669;SDS011;53568;52.164;4.472;2022-07-22T04:57:28;1.73;;;1.59;;
66669;SDS011;53568;52.164;4.472;2022-07-22T04:59:54;1.54;;;1.43;;
66669;SDS011;53568;52.164;4.472;2022-07-22T05:02:19;1.55;;;1.46;;
66669;SDS011;53568;52.164;4.472;2022-07-22T05:04:45;1.60;;;1.49;;
66669;SDS011;53568;52.164;4.472;2022-07-22T05:07:10;1.60;;;1.50;;
66669;SDS011;53568;52.164;4.472;2022-07-22T05:09:36;1.50;;;1.42;;
66669;SDS011;53568;52.164;4.472;2022-07-22T05:12:02;1.62;;;1.53;;
66669;SDS011;53568;52.164;4.472;2022-07-22T05:14:29;1.75;;;1.64;;
66669;SDS011;53568;52.164;4.472;2022-07-22T05:16:55;1.67;;;1.54;;
66669;SDS011;53568;52.164;4.472;2022-07-22T05:19:20;1.76;;;1.63;;
66669;SDS011;53568;52.164;4.472;2022-07-22T05:21:46;1.72;;;1.60;;
66669;SDS011;53568;52.164;4.472;2022-07-22T05:24:11;1.61;;;1.48;;
66669;SDS011;53568;52.164;4.472;2022-07-22T05:26:37;1.79;;;1.64;;
66669;SDS011;53568;52.164;4.472;2022-07-22T05:29:03;1.86;;;1.72;;
66669;SDS011;53568;52.164;4.472;2022-07-22T05:31:28;1.81;;;1.74;;
66669;SDS011;53568;52.164;4.472;2022-07-22T05:33:54;1.51;;;1.48;;
66669;SDS011;53568;52.164;4.472;2022-07-22T05:36:20;1.63;;;1.55;;
66669;SDS011;53568;52.164;4.472;2022-07-22T05:38:45;1.68;;;1.61;;
66669;SDS011;53568;52.164;4.472;2022-07-22T05:41:11;1.80;;;1.70;;
66669;SDS011;53568;52.164;4.472;2022-07-22T05:43:36;1.73;;;1.60;;
66669;SDS011;53568;52.164;4.472;2022-07-22T05:46:02;2.00;;;1.83;;
66669;SDS011;53568;52.164;4.472;2022-07-22T05:48:41;2.08;;;1.89;;
66669;SDS011;53568;52.164;4.472;2022-07-22T05:51:10;2.03;;;1.82;;
66669;SDS011;53568;52.164;4.472;2022-07-22T05:53:37;1.92;;;1.82;;
66669;SDS011;53568;52.164;4.472;2022-07-22T05:56:03;1.63;;;1.63;;
66669;SDS011;53568;52.164;4.472;2022-07-22T05:58:28;1.56;;;1.56;;
66669;SDS011;53568;52.164;4.472;2022-07-22T06:00:54;1.89;;;1.88;;
66669;SDS011;53568;52.164;4.472;2022-07-22T06:03:20;2.14;;;1.96;;
66669;SDS011;53568;52.164;4.472;2022-07-22T06:05:46;2.01;;;1.85;;
66669;SDS011;53568;52.164;4.472;2022-07-22T06:08:12;2.03;;;1.87;;
66669;SDS011;53568;52.164;4.472;2022-07-22T06:10:37;2.33;;;2.14;;
66669;SDS011;53568;52.164;4.472;2022-07-22T06:13:03;2.08;;;1.87;;
66669;SDS011;53568;52.164;4.472;2022-07-22T06:15:28;1.96;;;1.78;;
66669;SDS011;53568;52.164;4.472;2022-07-22T06:17:53;2.43;;;2.20;;
66669;SDS011;53568;52.164;4.472;2022-07-22T06:20:19;2.39;;;2.16;;
66669;SDS011;53568;52.164;4.472;2022-07-22T06:22:45;2.22;;;2.05;;
66669;SDS011;53568;52.164;4.472;2022-07-22T06:25:10;2.17;;;2.02;;
66669;SDS011;53568;52.164;4.472;2022-07-22T06:27:36;1.95;;;1.85;;
66669;SDS011;53568;52.164;4.472;2022-07-22T06:30:01;2.01;;;1.91;;
66669;SDS011;53568;52.164;4.472;2022-07-22T06:32:28;1.92;;;1.83;;
66669;SDS011;53568;52.164;4.472;2022-07-22T06:34:53;2.17;;;2.05;;
66669;SDS011;53568;52.164;4.472;2022-07-22T06:37:19;1.97;;;1.89;;
66669;SDS011;53568;52.164;4.472;2022-07-22T06:39:45;1.77;;;1.75;;
66669;SDS011;53568;52.164;4.472;2022-07-22T06:42:12;1.89;;;1.84;;
66669;SDS011;53568;52.164;4.472;2022-07-22T06:44:37;1.84;;;1.74;;
66669;SDS011;53568;52.164;4.472;2022-07-22T06:47:03;2.14;;;1.98;;
66669;SDS011;53568;52.164;4.472;2022-07-22T06:49:28;2.22;;;2.02;;
66669;SDS011;53568;52.164;4.472;2022-07-22T06:51:54;2.19;;;2.03;;
66669;SDS011;53568;52.164;4.472;2022-07-22T06:54:19;2.06;;;1.92;;
66669;SDS011;53568;52.164;4.472;2022-07-22T06:56:45;2.18;;;2.02;;
66669;SDS011;53568;52.164;4.472;2022-07-22T06:59:10;2.46;;;2.24;;
66669;SDS011;53568;52.164;4.472;2022-07-22T07:01:35;2.14;;;1.99;;
66669;SDS011;53568;52.164;4.472;2022-07-22T07:04:01;2.08;;;1.96;;
66669;SDS011;53568;52.164;4.472;2022-07-22T07:06:27;2.04;;;1.93;;
66669;SDS011;53568;52.164;4.472;2022-07-22T07:08:52;2.00;;;1.90;;
66669;SDS011;53568;52.164;4.472;2022-07-22T07:11:18;2.05;;;1.93;;
66669;SDS011;53568;52.164;4.472;2022-07-22T07:13:50;2.14;;;2.01;;
66669;SDS011;53568;52.164;4.472;2022-07-22T07:16:15;2.02;;;1.98;;
66669;SDS011;53568;52.164;4.472;2022-07-22T07:18:41;2.37;;;2.21;;
66669;SDS011;53568;52.164;4.472;2022-07-22T07:21:06;2.22;;;2.07;;
66669;SDS011;53568;52.164;4.472;2022-07-22T07:23:32;2.04;;;1.89;;
66669;SDS011;53568;52.164;4.472;2022-07-22T07:25:57;1.89;;;1.76;;
66669;SDS011;53568;52.164;4.472;2022-07-22T07:28:22;1.97;;;1.85;;
66669;SDS011;53568;52.164;4.472;2022-07-22T07:30:48;1.92;;;1.82;;
66669;SDS011;53568;52.164;4.472;2022-07-22T07:33:15;1.97;;;1.88;;
66669;SDS011;53568;52.164;4.472;2022-07-22T07:35:40;1.88;;;1.80;;
66669;SDS011;53568;52.164;4.472;2022-07-22T07:38:06;1.82;;;1.78;;
66669;SDS011;53568;52.164;4.472;2022-07-22T07:40:31;1.80;;;1.80;;
66669;SDS011;53568;52.164;4.472;2022-07-22T07:42:57;2.06;;;2.01;;
66669;SDS011;53568;52.164;4.472;2022-07-22T07:45:23;1.92;;;1.92;;
66669;SDS011;53568;52.164;4.472;2022-07-22T07:47:48;1.96;;;1.96;;
66669;SDS011;53568;52.164;4.472;2022-07-22T07:50:14;1.89;;;1.89;;
66669;SDS011;53568;52.164;4.472;2022-07-22T07:52:40;1.96;;;1.96;;
66669;SDS011;53568;52.164;4.472;2022-07-22T07:55:08;1.92;;;1.87;;
66669;SDS011;53568;52.164;4.472;2022-07-22T07:57:34;1.92;;;1.91;;
66669;SDS011;53568;52.164;4.472;2022-07-22T08:00:02;1.90;;;1.90;;
66669;SDS011;53568;52.164;4.472;2022-07-22T08:02:31;2.05;;;1.97;;
66669;SDS011;53568;52.164;4.472;2022-07-22T08:04:56;1.97;;;1.93;;
66669;SDS011;53568;52.164;4.472;2022-07-22T08:07:22;1.75;;;1.75;;
66669;SDS011;53568;52.164;4.472;2022-07-22T08:09:47;1.90;;;1.90;;
66669;SDS011;53568;52.164;4.472;2022-07-22T08:12:13;2.15;;;2.07;;
66669;SDS011;53568;52.164;4.472;2022-07-22T08:14:39;1.95;;;1.86;;
66669;SDS011;53568;52.164;4.472;2022-07-22T08:17:04;1.87;;;1.76;;
66669;SDS011;53568;52.164;4.472;2022-07-22T08:19:30;2.03;;;1.92;;
66669;SDS011;53568;52.164;4.472;2022-07-22T08:21:55;2.07;;;1.98;;
66669;SDS011;53568;52.164;4.472;2022-07-22T08:24:21;2.05;;;1.95;;
66669;SDS011;53568;52.164;4.472;2022-07-22T08:26:46;1.93;;;1.86;;
66669;SDS011;53568;52.164;4.472;2022-07-22T08:29:12;1.97;;;1.93;;
66669;SDS011;53568;52.164;4.472;2022-07-22T08:31:38;1.85;;;1.81;;
66669;SDS011;53568;52.164;4.472;2022-07-22T08:34:03;1.67;;;1.65;;
66669;SDS011;53568;52.164;4.472;2022-07-22T08:36:30;2.32;;;2.32;;
66669;SDS011;53568;52.164;4.472;2022-07-22T08:38:56;2.58;;;2.58;;
66669;SDS011;53568;52.164;4.472;2022-07-22T08:41:23;1.73;;;1.73;;
66669;SDS011;53568;52.164;4.472;2022-07-22T08:43:49;1.72;;;1.72;;
66669;SDS011;53568;52.164;4.472;2022-07-22T08:46:15;1.93;;;1.93;;
66669;SDS011;53568;52.164;4.472;2022-07-22T08:48:41;1.94;;;1.94;;
66669;SDS011;53568;52.164;4.472;2022-07-22T08:51:08;1.72;;;1.72;;
66669;SDS011;53568;52.164;4.472;2022-07-22T08:53:33;1.93;;;1.93;;
66669;SDS011;53568;52.164;4.472;2022-07-22T08:58:52;1.64;;;1.64;;
66669;SDS011;53568;52.164;4.472;2022-07-22T09:01:17;1.89;;;1.89;;
66669;SDS011;53568;52.164;4.472;2022-07-22T09:03:44;2.06;;;2.06;;
66669;SDS011;53568;52.164;4.472;2022-07-22T09:06:16;2.24;;;2.24;;
66669;SDS011;53568;52.164;4.472;2022-07-22T09:08:56;2.03;;;2.03;;
66669;SDS011;53568;52.164;4.472;2022-07-22T09:11:30;2.31;;;2.31;;
66669;SDS011;53568;52.164;4.472;2022-07-22T09:13:59;1.99;;;1.99;;
66669;SDS011;53568;52.164;4.472;2022-07-22T09:16:45;2.24;;;2.24;;
66669;SDS011;53568;52.164;4.472;2022-07-22T09:19:13;2.18;;;2.17;;
66669;SDS011;53568;52.164;4.472;2022-07-22T09:21:43;2.14;;;2.10;;
66669;SDS011;53568;52.164;4.472;2022-07-22T09:24:31;2.17;;;2.17;;
66669;SDS011;53568;52.164;4.472;2022-07-22T09:26:59;2.09;;;2.09;;
66669;SDS011;53568;52.164;4.472;2022-07-22T09:29:24;1.98;;;1.98;;
66669;SDS011;53568;52.164;4.472;2022-07-22T09:31:51;1.98;;;1.98;;
66669;SDS011;53568;52.164;4.472;2022-07-22T09:34:27;2.02;;;2.02;;
66669;SDS011;53568;52.164;4.472;2022-07-22T09:36:56;2.11;;;2.11;;
66669;SDS011;53568;52.164;4.472;2022-07-22T09:39:24;1.94;;;1.94;;
66669;SDS011;53568;52.164;4.472;2022-07-22T09:42:00;2.02;;;2.02;;
66669;SDS011;53568;52.164;4.472;2022-07-22T09:44:30;2.15;;;2.15;;
66669;SDS011;53568;52.164;4.472;2022-07-22T09:46:56;1.96;;;1.96;;
66669;SDS011;53568;52.164;4.472;2022-07-22T09:49:31;1.92;;;1.92;;
66669;SDS011;53568;52.164;4.472;2022-07-22T09:51:59;2.19;;;2.19;;
66669;SDS011;53568;52.164;4.472;2022-07-22T09:54:26;2.01;;;2.01;;
66669;SDS011;53568;52.164;4.472;2022-07-22T09:56:54;1.98;;;1.98;;
66669;SDS011;53568;52.164;4.472;2022-07-22T09:59:20;1.83;;;1.83;;
66669;SDS011;53568;52.164;4.472;2022-07-22T10:01:46;1.75;;;1.75;;
66669;SDS011;53568;52.164;4.472;2022-07-22T10:04:15;1.62;;;1.62;;
66669;SDS011;53568;52.164;4.472;2022-07-22T10:06:45;1.54;;;1.54;;
66669;SDS011;53568;52.164;4.472;2022-07-22T10:09:14;1.65;;;1.65;;
66669;SDS011;53568;52.164;4.472;2022-07-22T10:11:42;1.57;;;1.57;;
66669;SDS011;53568;52.164;4.472;2022-07-22T10:14:13;1.67;;;1.67;;
66669;SDS011;53568;52.164;4.472;2022-07-22T10:16:39;1.95;;;1.95;;
66669;SDS011;53568;52.164;4.472;2022-07-22T10:19:06;1.84;;;1.84;;
66669;SDS011;53568;52.164;4.472;2022-07-22T10:21:33;1.65;;;1.65;;
66669;SDS011;53568;52.164;4.472;2022-07-22T10:26:52;1.59;;;1.59;;
66669;SDS011;53568;52.164;4.472;2022-07-22T10:29:40;1.50;;;1.50;;
66669;SDS011;53568;52.164;4.472;2022-07-22T10:34:40;1.63;;;1.63;;
66669;SDS011;53568;52.164;4.472;2022-07-22T10:40:15;1.58;;;1.58;;
66669;SDS011;53568;52.164;4.472;2022-07-22T10:45:23;1.51;;;1.51;;
66669;SDS011;53568;52.164;4.472;2022-07-22T10:55:34;1.78;;;1.78;;
66669;SDS011;53568;52.164;4.472;2022-07-22T10:58:06;1.61;;;1.61;;
66669;SDS011;53568;52.164;4.472;2022-07-22T11:01:01;1.57;;;1.57;;
66669;SDS011;53568;52.164;4.472;2022-07-22T11:03:33;1.68;;;1.68;;
66669;SDS011;53568;52.164;4.472;2022-07-22T11:08:38;1.66;;;1.66;;
66669;SDS011;53568;52.164;4.472;2022-07-22T11:11:05;1.70;;;1.70;;
66669;SDS011;53568;52.164;4.472;2022-07-22T11:13:34;1.64;;;1.64;;
66669;SDS011;53568;52.164;4.472;2022-07-22T11:21:21;1.57;;;1.57;;
66669;SDS011;53568;52.164;4.472;2022-07-22T11:23:50;1.71;;;1.71;;
66669;SDS011;53568;52.164;4.472;2022-07-22T11:26:18;1.83;;;1.83;;
66669;SDS011;53568;52.164;4.472;2022-07-22T11:28:50;1.65;;;1.65;;
66669;SDS011;53568;52.164;4.472;2022-07-22T11:31:17;1.60;;;1.60;;
66669;SDS011;53568;52.164;4.472;2022-07-22T11:33:44;1.69;;;1.69;;
66669;SDS011;53568;52.164;4.472;2022-07-22T11:36:10;1.76;;;1.76;;
66669;SDS011;53568;52.164;4.472;2022-07-22T11:38:54;1.75;;;1.75;;
66669;SDS011;53568;52.164;4.472;2022-07-22T11:41:19;1.63;;;1.63;;
66669;SDS011;53568;52.164;4.472;2022-07-22T11:43:46;1.57;;;1.57;;
66669;SDS011;53568;52.164;4.472;2022-07-22T11:46:17;1.80;;;1.80;;
66669;SDS011;53568;52.164;4.472;2022-07-22T11:48:43;1.86;;;1.86;;
66669;SDS011;53568;52.164;4.472;2022-07-22T11:51:10;1.64;;;1.64;;
66669;SDS011;53568;52.164;4.472;2022-07-22T11:53:40;1.63;;;1.63;;
66669;SDS011;53568;52.164;4.472;2022-07-22T11:56:07;1.53;;;1.53;;
66669;SDS011;53568;52.164;4.472;2022-07-22T12:01:01;1.50;;;1.50;;
66669;SDS011;53568;52.164;4.472;2022-07-22T12:03:29;1.72;;;1.72;;
66669;SDS011;53568;52.164;4.472;2022-07-22T12:05:57;1.76;;;1.76;;
66669;SDS011;53568;52.164;4.472;2022-07-22T12:08:23;1.72;;;1.72;;
66669;SDS011;53568;52.164;4.472;2022-07-22T12:10:48;1.72;;;1.72;;
66669;SDS011;53568;52.164;4.472;2022-07-22T12:13:14;1.66;;;1.66;;
66669;SDS011;53568;52.164;4.472;2022-07-22T12:15:40;1.56;;;1.56;;
66669;SDS011;53568;52.164;4.472;2022-07-22T12:18:18;1.60;;;1.60;;
66669;SDS011;53568;52.164;4.472;2022-07-22T12:20:49;1.57;;;1.57;;
66669;SDS011;53568;52.164;4.472;2022-07-22T12:23:17;1.56;;;1.56;;
66669;SDS011;53568;52.164;4.472;2022-07-22T12:25:57;1.75;;;1.75;;
66669;SDS011;53568;52.164;4.472;2022-07-22T12:28:25;1.75;;;1.75;;
66669;SDS011;53568;52.164;4.472;2022-07-22T12:30:51;1.82;;;1.82;;
66669;SDS011;53568;52.164;4.472;2022-07-22T12:33:19;1.64;;;1.64;;
66669;SDS011;53568;52.164;4.472;2022-07-22T12:36:02;1.51;;;1.51;;
66669;SDS011;53568;52.164;4.472;2022-07-22T12:38:30;1.55;;;1.55;;
66669;SDS011;53568;52.164;4.472;2022-07-22T12:40:56;1.47;;;1.47;;
66669;SDS011;53568;52.164;4.472;2022-07-22T12:43:25;1.54;;;1.54;;
66669;SDS011;53568;52.164;4.472;2022-07-22T12:45:51;1.92;;;1.92;;
66669;SDS011;53568;52.164;4.472;2022-07-22T12:48:17;1.73;;;1.73;;
66669;SDS011;53568;52.164;4.472;2022-07-22T12:53:21;1.65;;;1.65;;
66669;SDS011;53568;52.164;4.472;2022-07-22T12:55:52;1.60;;;1.60;;
66669;SDS011;53568;52.164;4.472;2022-07-22T12:58:28;1.55;;;1.55;;
66669;SDS011;53568;52.164;4.472;2022-07-22T13:00:56;1.53;;;1.53;;
66669;SDS011;53568;52.164;4.472;2022-07-22T13:03:23;1.69;;;1.69;;
66669;SDS011;53568;52.164;4.472;2022-07-22T13:05:53;1.55;;;1.55;;
66669;SDS011;53568;52.164;4.472;2022-07-22T13:08:21;1.49;;;1.49;;
66669;SDS011;53568;52.164;4.472;2022-07-22T13:10:48;1.63;;;1.63;;
66669;SDS011;53568;52.164;4.472;2022-07-22T13:13:14;1.55;;;1.55;;
66669;SDS011;53568;52.164;4.472;2022-07-22T13:15:40;1.62;;;1.62;;
66669;SDS011;53568;52.164;4.472;2022-07-22T13:18:05;1.46;;;1.46;;
66669;SDS011;53568;52.164;4.472;2022-07-22T13:20:31;1.36;;;1.36;;
66669;SDS011;53568;52.164;4.472;2022-07-22T13:22:57;1.56;;;1.56;;
66669;SDS011;53568;52.164;4.472;2022-07-22T13:25:22;1.74;;;1.74;;
66669;SDS011;53568;52.164;4.472;2022-07-22T13:27:52;1.52;;;1.52;;
66669;SDS011;53568;52.164;4.472;2022-07-22T13:30:18;1.76;;;1.76;;
66669;SDS011;53568;52.164;4.472;2022-07-22T13:32:43;1.41;;;1.41;;
66669;SDS011;53568;52.164;4.472;2022-07-22T13:35:09;1.47;;;1.47;;
66669;SDS011;53568;52.164;4.472;2022-07-22T13:37:35;1.61;;;1.61;;
66669;SDS011;53568;52.164;4.472;2022-07-22T13:40:01;1.59;;;1.59;;
66669;SDS011;53568;52.164;4.472;2022-07-22T13:42:27;1.59;;;1.59;;
66669;SDS011;53568;52.164;4.472;2022-07-22T13:44:53;1.49;;;1.49;;
66669;SDS011;53568;52.164;4.472;2022-07-22T13:47:20;1.36;;;1.36;;
66669;SDS011;53568;52.164;4.472;2022-07-22T13:49:46;1.45;;;1.45;;
66669;SDS011;53568;52.164;4.472;2022-07-22T13:52:12;1.55;;;1.55;;
66669;SDS011;53568;52.164;4.472;2022-07-22T13:54:38;1.64;;;1.64;;
66669;SDS011;53568;52.164;4.472;2022-07-22T13:57:04;1.45;;;1.45;;
66669;SDS011;53568;52.164;4.472;2022-07-22T13:59:30;1.50;;;1.50;;
66669;SDS011;53568;52.164;4.472;2022-07-22T14:01:57;1.48;;;1.48;;
66669;SDS011;53568;52.164;4.472;2022-07-22T14:04:23;1.54;;;1.54;;
66669;SDS011;53568;52.164;4.472;2022-07-22T14:06:49;1.64;;;1.64;;
66669;SDS011;53568;52.164;4.472;2022-07-22T14:09:15;1.61;;;1.61;;
66669;SDS011;53568;52.164;4.472;2022-07-22T14:11:41;1.49;;;1.49;;
66669;SDS011;53568;52.164;4.472;2022-07-22T14:14:06;1.63;;;1.63;;
66669;SDS011;53568;52.164;4.472;2022-07-22T14:16:35;1.46;;;1.46;;
66669;SDS011;53568;52.164;4.472;2022-07-22T14:19:10;1.57;;;1.57;;
66669;SDS011;53568;52.164;4.472;2022-07-22T14:21:37;1.53;;;1.53;;
66669;SDS011;53568;52.164;4.472;2022-07-22T14:24:06;1.62;;;1.62;;
66669;SDS011;53568;52.164;4.472;2022-07-22T14:26:35;1.44;;;1.44;;
66669;SDS011;53568;52.164;4.472;2022-07-22T14:29:15;1.53;;;1.53;;
66669;SDS011;53568;52.164;4.472;2022-07-22T14:31:43;1.52;;;1.52;;
66669;SDS011;53568;52.164;4.472;2022-07-22T14:34:13;1.71;;;1.71;;
66669;SDS011;53568;52.164;4.472;2022-07-22T14:36:42;1.77;;;1.77;;
66669;SDS011;53568;52.164;4.472;2022-07-22T14:39:07;1.54;;;1.54;;
66669;SDS011;53568;52.164;4.472;2022-07-22T14:41:33;1.37;;;1.37;;
66669;SDS011;53568;52.164;4.472;2022-07-22T14:43:59;1.48;;;1.48;;
66669;SDS011;53568;52.164;4.472;2022-07-22T14:46:30;1.46;;;1.46;;
66669;SDS011;53568;52.164;4.472;2022-07-22T14:49:05;1.29;;;1.29;;
66669;SDS011;53568;52.164;4.472;2022-07-22T14:51:33;1.55;;;1.55;;
66669;SDS011;53568;52.164;4.472;2022-07-22T14:54:10;1.40;;;1.40;;
66669;SDS011;53568;52.164;4.472;2022-07-22T14:56:37;1.51;;;1.51;;
66669;SDS011;53568;52.164;4.472;2022-07-22T14:59:06;1.45;;;1.45;;
66669;SDS011;53568;52.164;4.472;2022-07-22T15:01:35;1.48;;;1.48;;
66669;SDS011;53568;52.164;4.472;2022-07-22T15:04:15;1.46;;;1.46;;
66669;SDS011;53568;52.164;4.472;2022-07-22T15:06:43;1.41;;;1.41;;
66669;SDS011;53568;52.164;4.472;2022-07-22T15:09:09;1.43;;;1.43;;
66669;SDS011;53568;52.164;4.472;2022-07-22T15:11:37;1.48;;;1.48;;
66669;SDS011;53568;52.164;4.472;2022-07-22T15:14:13;1.45;;;1.45;;
66669;SDS011;53568;52.164;4.472;2022-07-22T15:16:38;1.51;;;1.51;;
66669;SDS011;53568;52.164;4.472;2022-07-22T15:19:04;1.60;;;1.60;;
66669;SDS011;53568;52.164;4.472;2022-07-22T15:21:29;1.48;;;1.48;;